Time;durP1;ratioP1;P1;durP2;ratioP2;P2;SDS_P1;SDS_P2;PMS_P1;PMS_P2;Temp;Humidity;BMP_temperature;BMP_pressure;BME280_temperature;BME280_humidity;BME280_pressure;Samples;Min_cycle;Max_cycle;Signal;HPM_P1;HPM_P2
2021/03/18 00:01:44;;;;;;;1999.90;999.90;;;2.60;99.90;;;;;;5032957;28;20172;-68
2021/03/18 00:04:11;;;;;;;1999.90;999.90;;;2.50;99.90;;;;;;5032835;28;20208;-68
2021/03/18 00:06:38;;;;;;;1999.90;999.90;;;2.50;99.90;;;;;;5032468;28;20230;-69
2021/03/18 00:09:08;;;;;;;1999.90;999.90;;;2.40;99.90;;;;;;5032740;28;20172;-69
2021/03/18 00:11:35;;;;;;;1999.90;999.90;;;2.50;99.90;;;;;;5032832;28;20176;-68
2021/03/18 00:14:01;;;;;;;1999.90;999.90;;;2.40;99.90;;;;;;5032602;28;20568;-68
2021/03/18 00:16:27;;;;;;;1999.90;999.90;;;2.40;99.90;;;;;;5032255;28;20246;-67
2021/03/18 00:18:54;;;;;;;1999.90;999.90;;;2.20;99.90;;;;;;5032585;28;20250;-68
2021/03/18 00:21:21;;;;;;;1999.90;999.90;;;2.20;99.90;;;;;;5032556;28;20187;-68
2021/03/18 00:23:47;;;;;;;1999.90;999.90;;;2.10;99.90;;;;;;5032577;28;20207;-68
2021/03/18 00:26:14;;;;;;;1999.90;999.90;;;2.20;99.90;;;;;;5032123;28;20188;-67
2021/03/18 00:28:39;;;;;;;1999.90;999.90;;;2.20;99.90;;;;;;5032475;28;20596;-68
2021/03/18 00:31:08;;;;;;;1999.90;999.90;;;2.00;99.90;;;;;;5032406;28;20172;-68
2021/03/18 00:33:35;;;;;;;1999.90;999.90;;;2.00;99.90;;;;;;5032258;28;20283;-66
2021/03/18 00:36:00;;;;;;;1999.90;999.90;;;2.00;99.90;;;;;;5031840;28;20204;-68
2021/03/18 00:38:27;;;;;;;1999.90;999.90;;;2.10;99.90;;;;;;5032176;28;20169;-68
2021/03/18 00:41:03;;;;;;;1999.90;999.90;;;2.20;99.90;;;;;;5032243;28;20171;-68
2021/03/18 00:43:28;;;;;;;1999.90;999.90;;;2.20;99.90;;;;;;5032195;28;20178;-69
2021/03/18 00:45:54;;;;;;;1999.90;999.90;;;2.30;99.90;;;;;;5031828;28;20635;-68
2021/03/18 00:48:22;;;;;;;1999.90;999.90;;;2.40;99.90;;;;;;5032152;28;20180;-67
2021/03/18 00:50:57;;;;;;;1999.90;999.90;;;2.40;99.90;;;;;;5032085;28;20168;-67
2021/03/18 00:53:31;;;;;;;1999.90;999.90;;;2.30;99.90;;;;;;5032028;28;20200;-68
2021/03/18 00:55:57;;;;;;;1999.90;999.90;;;2.20;99.90;;;;;;5031857;28;20298;-69
2021/03/18 00:58:23;;;;;;;1999.90;999.90;;;2.20;99.90;;;;;;5031949;28;20168;-68
2021/03/18 01:00:54;;;;;;;1999.90;999.90;;;2.40;99.90;;;;;;5032002;28;20210;-68
2021/03/18 01:03:25;;;;;;;1999.90;999.90;;;2.40;99.90;;;;;;5031903;28;20574;-67
2021/03/18 01:05:56;;;;;;;1999.90;999.90;;;2.30;99.90;;;;;;5031645;28;20191;-69
2021/03/18 01:08:26;;;;;;;1999.90;999.90;;;2.30;99.90;;;;;;5035460;28;20202;-68
2021/03/18 01:10:57;;;;;;;1999.90;999.90;;;2.30;99.90;;;;;;5038689;28;20173;-68
2021/03/18 01:13:24;;;;;;;1999.90;999.90;;;2.20;99.90;;;;;;5038396;28;20532;-68
2021/03/18 01:15:58;;;;;;;1999.90;999.90;;;2.10;99.90;;;;;;5038025;28;20253;-68
2021/03/18 01:18:35;;;;;;;1999.90;999.90;;;2.10;99.90;;;;;;5038444;28;20206;-68
2021/03/18 01:21:00;;;;;;;1999.90;999.90;;;2.10;99.90;;;;;;5038428;28;20176;-68
2021/03/18 01:23:26;;;;;;;1999.90;999.90;;;2.10;99.90;;;;;;5038414;28;20218;-69
2021/03/18 01:25:52;;;;;;;1999.90;999.90;;;2.10;99.90;;;;;;5038057;28;20195;-68
2021/03/18 01:28:17;;;;;;;1999.90;999.90;;;2.00;99.90;;;;;;5038304;28;20202;-69
2021/03/18 01:30:43;;;;;;;1999.90;999.90;;;2.00;99.90;;;;;;5038528;28;20644;-68
2021/03/18 01:33:08;;;;;;;1999.90;999.90;;;2.00;99.90;;;;;;5038301;28;20179;-69
2021/03/18 01:35:35;;;;;;;1999.90;999.90;;;2.10;99.90;;;;;;5037925;28;20579;-68
2021/03/18 01:38:01;;;;;;;1999.90;999.90;;;2.10;99.90;;;;;;5038302;28;20699;-67
2021/03/18 01:40:31;;;;;;;1999.90;999.90;;;2.10;99.90;;;;;;5038202;28;20245;-69
2021/03/18 01:42:57;;;;;;;1999.90;999.90;;;2.10;99.90;;;;;;5038159;28;20287;-68
2021/03/18 01:45:24;;;;;;;1999.90;999.90;;;2.10;99.90;;;;;;5038118;28;20649;-68
2021/03/18 01:47:52;;;;;;;1999.90;999.90;;;2.10;99.90;;;;;;5038153;28;20260;-68
2021/03/18 01:50:21;;;;;;;1999.90;999.90;;;2.10;99.90;;;;;;5038166;28;20250;-68
2021/03/18 01:52:48;;;;;;;1999.90;999.90;;;2.10;99.90;;;;;;5038051;28;20224;-67
2021/03/18 01:55:19;;;;;;;1999.90;999.90;;;2.10;99.90;;;;;;5037656;28;20228;-67
2021/03/18 01:57:47;;;;;;;1999.90;999.90;;;2.10;99.90;;;;;;5038063;28;20426;-68
2021/03/18 02:00:14;;;;;;;1999.90;999.90;;;2.20;99.90;;;;;;5038119;28;20218;-68
2021/03/18 02:02:39;;;;;;;1999.90;999.90;;;2.10;99.90;;;;;;5038050;28;20825;-68
2021/03/18 02:05:06;;;;;;;1999.90;999.90;;;2.00;99.90;;;;;;5037752;28;20179;-68
2021/03/18 02:07:32;;;;;;;1999.90;999.90;;;2.00;99.90;;;;;;5037842;28;20462;-68
2021/03/18 02:09:57;;;;;;;1999.90;999.90;;;2.10;99.90;;;;;;5037898;28;20223;-69
2021/03/18 02:12:23;;;;;;;1999.90;999.90;;;2.10;99.90;;;;;;5037893;28;20226;-69
2021/03/18 02:14:49;;;;;;;1999.90;999.90;;;2.00;99.90;;;;;;5037766;28;20204;-68
2021/03/18 02:17:50;;;;;;;1999.90;999.90;;;2.00;99.90;;;;;;5037848;28;20234;-69
2021/03/18 02:20:52;;;;;;;1999.90;999.90;;;1.90;99.90;;;;;;5018728;28;20169;-68
2021/03/18 02:23:44;;;;;;;1999.90;999.90;;;2.00;99.90;;;;;;5034761;28;20168;-68
2021/03/18 02:26:36;;;;;;;1999.90;999.90;;;1.90;99.90;;;;;;5015815;28;20208;-69
2021/03/18 02:29:20;;;;;;;1999.90;999.90;;;1.90;99.90;;;;;;5034682;28;20168;-69
2021/03/18 02:31:48;;;;;;;1999.90;999.90;;;1.90;99.90;;;;;;5034609;28;20232;-68
2021/03/18 02:34:36;;;;;;;1999.90;999.90;;;1.90;99.90;;;;;;5034477;28;20697;-67
2021/03/18 02:37:10;;;;;;;1999.90;999.90;;;1.90;99.90;;;;;;5034114;28;20203;-69
2021/03/18 02:39:39;;;;;;;1999.90;999.90;;;1.90;99.90;;;;;;5034662;28;20177;-69
2021/03/18 02:42:10;;;;;;;1999.90;999.90;;;1.90;99.90;;;;;;5034448;28;20176;-67
2021/03/18 02:44:40;;;;;;;1999.90;999.90;;;1.90;99.90;;;;;;5034377;28;20177;-68
2021/03/18 02:47:08;;;;;;;1999.90;999.90;;;1.90;99.90;;;;;;5034046;28;20196;-69
2021/03/18 02:49:40;;;;;;;1999.90;999.90;;;1.90;99.90;;;;;;5034215;28;20545;-69
2021/03/18 02:52:06;;;;;;;1999.90;999.90;;;1.90;99.90;;;;;;5034272;28;20177;-68
2021/03/18 02:54:33;;;;;;;1999.90;999.90;;;1.90;99.90;;;;;;5034031;28;20199;-68
2021/03/18 02:57:02;;;;;;;1999.90;999.90;;;1.90;99.90;;;;;;5033833;28;20199;-68
2021/03/18 02:59:33;;;;;;;1999.90;999.90;;;1.90;99.90;;;;;;5034094;28;20192;-68
2021/03/18 03:02:02;;;;;;;1999.90;999.90;;;1.90;99.90;;;;;;5034045;28;20169;-69
2021/03/18 03:04:29;;;;;;;1999.90;999.90;;;2.10;99.90;;;;;;5034017;28;20280;-69
2021/03/18 03:06:56;;;;;;;1999.90;999.90;;;2.10;99.90;;;;;;5033674;28;20685;-69
2021/03/18 03:09:22;;;;;;;1999.90;999.90;;;2.10;99.90;;;;;;5033867;28;20176;-68
2021/03/18 03:11:49;;;;;;;1999.90;999.90;;;2.10;99.90;;;;;;5033820;28;20688;-68
2021/03/18 03:14:15;;;;;;;1999.90;999.90;;;2.10;99.90;;;;;;5033755;28;20203;-68
2021/03/18 03:16:41;;;;;;;1999.90;999.90;;;2.10;99.90;;;;;;5033357;28;20280;-69
2021/03/18 03:19:08;;;;;;;1999.90;999.90;;;2.20;99.90;;;;;;5033776;28;20161;-69
2021/03/18 03:21:35;;;;;;;1999.90;999.90;;;2.20;99.90;;;;;;5033641;28;20247;-69
2021/03/18 03:24:03;;;;;;;1999.90;999.90;;;2.20;99.90;;;;;;5033604;28;20180;-68
2021/03/18 03:26:31;;;;;;;1999.90;999.90;;;2.30;99.90;;;;;;5033264;28;20669;-69
2021/03/18 03:28:59;;;;;;;1999.90;999.90;;;2.30;99.90;;;;;;5033547;28;20696;-69
2021/03/18 03:31:25;;;;;;;1999.90;999.90;;;2.30;99.90;;;;;;5033357;28;20238;-69
2021/03/18 03:33:51;;;;;;;1999.90;999.90;;;2.30;99.90;;;;;;5033319;28;20192;-69
2021/03/18 03:36:17;;;;;;;1999.90;999.90;;;2.40;99.90;;;;;;5033103;28;20705;-68
2021/03/18 03:38:42;;;;;;;1999.90;999.90;;;2.40;99.90;;;;;;5033307;28;20161;-68
2021/03/18 03:41:08;;;;;;;1999.90;999.90;;;2.40;99.90;;;;;;5033327;28;20164;-69
2021/03/18 03:43:34;;;;;;;1999.90;999.90;;;2.40;99.90;;;;;;5033216;28;20655;-69
2021/03/18 03:46:00;;;;;;;1999.90;999.90;;;2.50;99.90;;;;;;5032898;28;20180;-69
2021/03/18 03:48:29;;;;;;;1999.90;999.90;;;2.60;99.90;;;;;;5033135;28;20176;-69
2021/03/18 03:50:56;;;;;;;1999.90;999.90;;;2.60;99.90;;;;;;5033131;28;20702;-69
2021/03/18 03:53:38;;;;;;;1999.90;999.90;;;2.60;99.90;;;;;;5033015;28;20176;-68
2021/03/18 03:56:12;;;;;;;1999.90;999.90;;;2.60;99.90;;;;;;5032645;28;20207;-68
2021/03/18 03:58:40;;;;;;;1999.90;999.90;;;2.50;99.90;;;;;;5033032;28;20215;-69
2021/03/18 04:01:30;;;;;;;1999.90;999.90;;;2.50;99.90;;;;;;5032962;28;20535;-68
2021/03/18 04:04:06;;;;;;;1999.90;999.90;;;2.50;99.90;;;;;;5032877;28;20526;-68
2021/03/18 04:06:37;;;;;;;1999.90;999.90;;;2.40;99.90;;;;;;5032470;28;20188;-68
2021/03/18 04:09:07;;;;;;;1999.90;999.90;;;2.30;99.90;;;;;;5032863;28;20553;-68
2021/03/18 04:11:37;;;;;;;1999.90;999.90;;;2.20;99.90;;;;;;5032746;28;20214;-68
2021/03/18 04:14:04;;;;;;;1999.90;999.90;;;2.20;99.90;;;;;;5032712;28;20583;-67
2021/03/18 04:16:31;;;;;;;1999.90;999.90;;;2.20;99.90;;;;;;5032298;28;20692;-68
2021/03/18 04:18:57;;;;;;;1999.90;999.90;;;2.10;99.90;;;;;;5032597;28;20186;-68
2021/03/18 04:21:24;;;;;;;1999.90;999.90;;;2.10;99.90;;;;;;5032512;28;20169;-68
2021/03/18 04:23:51;;;;;;;1999.90;999.90;;;2.00;99.90;;;;;;5032475;28;20245;-69
2021/03/18 04:26:19;;;;;;;1999.90;999.90;;;2.00;99.90;;;;;;5032132;28;20204;-69
2021/03/18 04:28:45;;;;;;;1999.90;999.90;;;2.00;99.90;;;;;;5032475;28;20180;-69
2021/03/18 04:31:11;;;;;;;1999.90;999.90;;;2.00;99.90;;;;;;5032387;28;20709;-69
2021/03/18 04:33:39;;;;;;;1999.90;999.90;;;2.10;99.90;;;;;;5032240;28;20940;-68
2021/03/18 04:36:05;;;;;;;1999.90;999.90;;;2.10;99.90;;;;;;5031993;28;20685;-68
2021/03/18 04:38:34;;;;;;;1999.90;999.90;;;2.20;99.90;;;;;;5032208;28;20166;-68
2021/03/18 04:41:00;;;;;;;1999.90;999.90;;;2.20;99.90;;;;;;5032626;28;20283;-68
2021/03/18 04:43:27;;;;;;;1999.90;999.90;;;2.20;99.90;;;;;;5031706;28;20641;-67
2021/03/18 04:45:55;;;;;;;1999.90;999.90;;;2.20;99.90;;;;;;5031820;28;20200;-68
2021/03/18 04:48:22;;;;;;;1999.90;999.90;;;2.30;99.90;;;;;;5032138;28;20195;-68
2021/03/18 04:50:48;;;;;;;1999.90;999.90;;;2.20;99.90;;;;;;5032282;28;20552;-68
2021/03/18 04:53:14;;;;;;;1999.90;999.90;;;2.10;99.90;;;;;;5032020;28;20630;-68
2021/03/18 04:55:40;;;;;;;1999.90;999.90;;;2.20;99.90;;;;;;5031704;28;20188;-68
2021/03/18 04:58:08;;;;;;;1999.90;999.90;;;2.10;99.90;;;;;;5032037;28;20176;-67
2021/03/18 05:00:36;;;;;;;1999.90;999.90;;;2.10;99.90;;;;;;5032029;28;20165;-68
2021/03/18 05:03:05;;;;;;;1999.90;999.90;;;2.10;99.90;;;;;;5031985;28;20180;-68
2021/03/18 05:05:33;;;;;;;1999.90;999.90;;;2.10;99.90;;;;;;5031563;28;20188;-68
2021/03/18 05:08:00;;;;;;;1999.90;999.90;;;2.10;99.90;;;;;;5032037;28;20207;-68
2021/03/18 05:10:28;;;;;;;1999.90;999.90;;;2.10;99.90;;;;;;5031939;28;20259;-69
2021/03/18 05:12:56;;;;;;;1999.90;999.90;;;2.10;99.90;;;;;;5031912;28;20184;-68
2021/03/18 05:15:23;;;;;;;1999.90;999.90;;;2.00;99.90;;;;;;5031457;28;20275;-68
2021/03/18 05:17:50;;;;;;;1999.90;999.90;;;2.00;99.90;;;;;;5031819;28;20173;-67
2021/03/18 05:20:18;;;;;;;1999.90;999.90;;;1.90;99.90;;;;;;5031835;28;20175;-69
2021/03/18 05:22:46;;;;;;;1999.90;999.90;;;1.80;99.90;;;;;;5031744;28;20176;-68
2021/03/18 05:25:14;;;;;;;1999.90;999.90;;;1.80;99.90;;;;;;5031470;28;20175;-68
2021/03/18 05:27:39;;;;;;;1999.90;999.90;;;1.80;99.90;;;;;;5031705;28;20551;-67
2021/03/18 05:30:07;;;;;;;1999.90;999.90;;;1.80;99.90;;;;;;5031701;28;20168;-68
2021/03/18 05:32:33;;;;;;;1999.90;999.90;;;1.70;99.90;;;;;;5031850;28;20753;-67
2021/03/18 05:34:59;;;;;;;1999.90;999.90;;;1.70;99.90;;;;;;5031397;28;20207;-68
2021/03/18 05:37:25;;;;;;;1999.90;999.90;;;1.70;99.90;;;;;;5031487;28;20998;-68
2021/03/18 05:39:50;;;;;;;1999.90;999.90;;;1.70;99.90;;;;;;5031626;28;20172;-68
2021/03/18 05:42:17;;;;;;;1999.90;999.90;;;1.80;99.90;;;;;;5031543;28;20438;-69
2021/03/18 05:44:44;;;;;;;1999.90;999.90;;;1.80;99.90;;;;;;5031441;28;20195;-67
2021/03/18 05:47:11;;;;;;;1999.90;999.90;;;1.80;99.90;;;;;;5031381;28;20250;-68
2021/03/18 05:49:37;;;;;;;1999.90;999.90;;;1.80;99.90;;;;;;5031704;28;20600;-68
2021/03/18 05:52:05;;;;;;;1999.90;999.90;;;1.80;99.90;;;;;;5031481;28;20251;-68
2021/03/18 05:54:32;;;;;;;1999.90;999.90;;;1.80;99.90;;;;;;5031782;28;20735;-68
2021/03/18 05:56:59;;;;;;;1999.90;999.90;;;1.90;99.90;;;;;;5034826;28;20267;-67
2021/03/18 05:59:25;;;;;;;1999.90;999.90;;;1.90;99.90;;;;;;5035218;28;20164;-68
2021/03/18 06:01:51;;;;;;;1999.90;999.90;;;1.90;99.90;;;;;;5035236;28;20226;-67
2021/03/18 06:04:17;;;;;;;1999.90;999.90;;;1.90;99.90;;;;;;5035175;28;20171;-67
2021/03/18 06:06:44;;;;;;;1999.90;999.90;;;1.90;99.90;;;;;;5034663;28;20199;-68
2021/03/18 06:09:10;;;;;;;1999.90;999.90;;;1.90;99.90;;;;;;5035018;28;20242;-67
2021/03/18 06:11:35;;;;;;;1999.90;999.90;;;2.00;99.90;;;;;;5034971;28;20827;-67
2021/03/18 06:14:02;;;;;;;1999.90;999.90;;;2.00;99.90;;;;;;5034896;28;20195;-68
2021/03/18 06:16:28;;;;;;;1999.90;999.90;;;2.00;99.90;;;;;;5034474;28;20199;-68
2021/03/18 06:18:54;;;;;;;1999.90;999.90;;;2.20;99.90;;;;;;5034869;28;20172;-68
2021/03/18 06:21:43;;;;;;;1999.90;999.90;;;2.30;99.90;;;;;;5034782;28;20406;-68
2021/03/18 06:24:09;;;;;;;1999.90;999.90;;;2.40;99.90;;;;;;5034716;28;20190;-68
2021/03/18 06:26:36;;;;;;;1999.90;999.90;;;2.50;99.90;;;;;;5034525;28;20196;-67
2021/03/18 06:29:21;;;;;;;1999.90;999.90;;;2.50;99.90;;;;;;5034650;28;20204;-68
2021/03/18 06:31:47;;;;;;;1999.90;999.90;;;2.50;99.90;;;;;;5034723;28;20226;-68
2021/03/18 06:34:33;;;;;;;1999.90;999.90;;;2.50;99.90;;;;;;5034431;28;20192;-68
2021/03/18 06:36:59;;;;;;;1999.90;999.90;;;2.50;99.90;;;;;;5034019;28;20223;-68
2021/03/18 06:39:31;;;;;;;1999.90;999.90;;;2.50;99.90;;;;;;5034534;28;20671;-68
2021/03/18 06:41:59;;;;;;;1999.90;999.90;;;2.40;99.90;;;;;;5033418;28;20231;-67
2021/03/18 06:44:27;;;;;;;1999.90;999.90;;;2.40;99.90;;;;;;5034357;28;20662;-68
2021/03/18 06:46:55;;;;;;;1999.90;999.90;;;2.40;99.90;;;;;;5033932;28;20550;-68
2021/03/18 06:49:22;;;;;;;1999.90;999.90;;;2.50;99.90;;;;;;5034255;28;20234;-67
2021/03/18 06:52:06;;;;;;;1999.90;999.90;;;2.40;99.90;;;;;;5034382;28;20179;-67
2021/03/18 06:54:40;;;;;;;1999.90;999.90;;;2.40;99.90;;;;;;5034090;28;20192;-67
2021/03/18 06:57:06;;;;;;;1999.90;999.90;;;2.40;99.90;;;;;;5033933;28;20215;-68
2021/03/18 06:59:37;;;;;;;1999.90;999.90;;;2.30;99.90;;;;;;5034074;28;20668;-68
2021/03/18 07:02:10;;;;;;;1999.90;999.90;;;2.30;99.90;;;;;;5034240;28;20206;-67
2021/03/18 07:04:41;;;;;;;1999.90;999.90;;;2.30;99.90;;;;;;5034035;28;20169;-68
2021/03/18 07:07:09;;;;;;;1999.90;999.90;;;2.30;99.90;;;;;;5033334;28;20200;-68
2021/03/18 07:09:36;;;;;;;1999.90;999.90;;;2.40;99.90;;;;;;5033973;28;20192;-67
2021/03/18 07:12:13;;;;;;;1999.90;999.90;;;2.40;99.90;;;;;;5033863;28;20588;-68
2021/03/18 07:14:47;;;;;;;1999.90;999.90;;;2.60;99.90;;;;;;5033726;28;20210;-68
2021/03/18 07:17:33;;;;;;;1999.90;999.90;;;2.60;99.90;;;;;;5033823;28;20197;-68
2021/03/18 07:20:11;;;;;;;1999.90;999.90;;;2.70;99.90;;;;;;5033786;28;20182;-68
2021/03/18 07:22:42;;;;;;;1999.90;999.90;;;2.70;99.90;;;;;;5033716;28;20180;-67
2021/03/18 07:25:09;;;;;;;1999.90;999.90;;;2.70;99.90;;;;;;5033426;28;20183;-67
2021/03/18 07:27:40;;;;;;;1999.90;999.90;;;2.70;99.90;;;;;;5033854;28;20638;-67
2021/03/18 07:30:06;;;;;;;1999.90;999.90;;;2.80;99.90;;;;;;5033550;28;20190;-67
2021/03/18 07:32:32;;;;;;;1999.90;999.90;;;2.80;99.90;;;;;;5033440;28;20176;-67
2021/03/18 07:34:58;;;;;;;1999.90;999.90;;;2.90;99.90;;;;;;5033510;28;20203;-67
2021/03/18 07:37:24;;;;;;;1999.90;999.90;;;3.10;99.90;;;;;;5033266;28;20542;-67
2021/03/18 07:39:49;;;;;;;1999.90;999.90;;;3.10;99.90;;;;;;5033335;28;20423;-68
2021/03/18 07:42:17;;;;;;;1999.90;999.90;;;3.20;99.90;;;;;;5033371;28;20255;-68
2021/03/18 07:44:44;;;;;;;1999.90;999.90;;;3.20;99.90;;;;;;5033101;28;20173;-68
2021/03/18 07:47:11;;;;;;;1999.90;999.90;;;3.30;99.90;;;;;;5033007;28;20192;-67
2021/03/18 07:49:40;;;;;;;1999.90;999.90;;;3.40;99.90;;;;;;5033078;28;20168;-68
2021/03/18 07:52:11;;;;;;;1999.90;999.90;;;3.50;99.90;;;;;;5033102;28;20172;-67
2021/03/18 07:54:37;;;;;;;1999.90;999.90;;;3.60;99.90;;;;;;5033030;28;20200;-68
2021/03/18 07:57:13;;;;;;;1999.90;999.90;;;3.80;99.90;;;;;;5032668;28;20188;-68
2021/03/18 07:59:39;;;;;;;1999.90;999.90;;;4.00;99.90;;;;;;5032966;28;20176;-68
2021/03/18 08:02:15;;;;;;;1999.90;999.90;;;4.10;99.90;;;;;;5032886;28;20180;-67
2021/03/18 08:04:46;;;;;;;1999.90;999.90;;;4.30;99.90;;;;;;5032713;28;20215;-68
2021/03/18 08:07:32;;;;;;;1999.90;999.90;;;4.50;99.90;;;;;;5032796;28;20431;-67
2021/03/18 08:09:57;;;;;;;1999.90;999.90;;;4.60;99.90;;;;;;5032800;28;20176;-68
2021/03/18 08:12:46;;;;;;;1999.90;999.90;;;4.80;99.90;;;;;;5032683;28;20180;-67
2021/03/18 08:15:22;;;;;;;1999.90;999.90;;;5.00;99.90;;;;;;5032233;28;20188;-67
2021/03/18 08:17:47;;;;;;;1999.90;999.90;;;5.10;99.90;;;;;;5031861;28;20164;-68
2021/03/18 08:20:41;;;;;;;1999.90;999.90;;;5.20;99.90;;;;;;5032538;28;20406;-68
2021/03/18 08:23:22;;;;;;;1999.90;999.90;;;5.30;99.90;;;;;;5032496;28;20175;-68
2021/03/18 08:25:49;;;;;;;1999.90;999.90;;;5.30;99.90;;;;;;5032267;28;20439;-68
2021/03/18 08:28:39;;;;;;;1999.90;999.90;;;5.30;99.90;;;;;;5032444;28;20410;-68
2021/03/18 08:31:14;;;;;;;1999.90;999.90;;;5.40;99.90;;;;;;5032318;28;20399;-68
2021/03/18 08:33:53;;;;;;;1999.90;999.90;;;5.40;99.90;;;;;;5032251;28;20441;-69
2021/03/18 08:36:32;;;;;;;1999.90;999.90;;;5.50;99.90;;;;;;5031818;28;20500;-68
2021/03/18 08:39:13;;;;;;;1999.90;999.90;;;5.50;99.90;;;;;;5032369;28;20406;-68
2021/03/18 08:41:46;;;;;;;1999.90;999.90;;;5.40;99.90;;;;;;5032220;28;20399;-68
2021/03/18 08:44:20;;;;;;;1999.90;999.90;;;5.40;99.90;;;;;;5032217;28;20399;-67
2021/03/18 08:46:52;;;;;;;1999.90;999.90;;;5.40;99.90;;;;;;5031936;28;20419;-67
2021/03/18 08:49:21;;;;;;;1999.90;999.90;;;5.40;99.90;;;;;;5032134;28;20399;-68
2021/03/18 08:51:47;;;;;;;1999.90;999.90;;;5.50;99.90;;;;;;5032134;28;20465;-68
2021/03/18 08:54:41;;;;;;;1999.90;999.90;;;5.70;99.90;;;;;;5031854;28;20451;-68
2021/03/18 08:57:24;;;;;;;1999.90;999.90;;;5.70;99.90;;;;;;5031933;28;20416;-68
2021/03/18 08:59:58;;;;;;;1999.90;999.90;;;5.80;99.90;;;;;;5032133;28;20403;-68
2021/03/18 09:02:32;;;;;;;1999.90;999.90;;;5.90;99.90;;;;;;5031909;28;20978;-69
2021/03/18 09:04:59;;;;;;;1999.90;999.90;;;6.00;99.90;;;;;;5031915;28;20410;-69
2021/03/18 09:07:28;;;;;;;1999.90;999.90;;;6.10;99.90;;;;;;5031988;28;20508;-68
2021/03/18 09:10:12;;;;;;;1999.90;999.90;;;6.10;99.90;;;;;;5031857;28;20785;-68
2021/03/18 09:12:43;;;;;;;1999.90;999.90;;;6.30;99.90;;;;;;5031947;28;20450;-69
2021/03/18 09:15:16;;;;;;;1999.90;999.90;;;6.50;99.90;;;;;;5031711;28;20458;-68
2021/03/18 09:17:44;;;;;;;1999.90;999.90;;;6.60;99.90;;;;;;5031894;28;20401;-68
2021/03/18 09:20:11;;;;;;;1999.90;999.90;;;6.50;99.90;;;;;;5031888;28;20433;-68
2021/03/18 09:22:37;;;;;;;1999.90;999.90;;;6.50;99.90;;;;;;5031729;28;20403;-69
2021/03/18 09:25:03;;;;;;;1999.90;999.90;;;6.50;99.90;;;;;;5031509;28;20414;-69
2021/03/18 09:27:44;;;;;;;1999.90;999.90;;;6.60;99.90;;;;;;5031589;28;20195;-69
2021/03/18 09:30:19;;;;;;;1999.90;999.90;;;6.50;99.90;;;;;;5035060;28;20784;-69
2021/03/18 09:32:44;;;;;;;1999.90;999.90;;;6.60;99.90;;;;;;5035754;28;20899;-68
2021/03/18 09:35:12;;;;;;;1999.90;999.90;;;6.60;99.90;;;;;;5035281;28;20457;-68
2021/03/18 09:37:39;;;;;;;1999.90;999.90;;;6.50;99.90;;;;;;5035671;28;20207;-69
2021/03/18 09:40:06;;;;;;;1999.90;999.90;;;6.70;99.90;;;;;;5035848;28;20418;-69
2021/03/18 09:42:32;;;;;;;1999.90;999.90;;;6.90;99.90;;;;;;5035460;28;20776;-68
2021/03/18 09:44:59;;;;;;;1999.90;999.90;;;7.20;99.90;;;;;;5035213;28;20411;-66
2021/03/18 09:47:25;;;;;;;1999.90;999.90;;;7.40;99.90;;;;;;5035461;28;20522;-69
2021/03/18 09:49:52;;;;;;;1999.90;999.90;;;7.50;99.90;;;;;;5035447;28;20893;-68
2021/03/18 09:52:22;;;;;;;1999.90;999.90;;;7.50;99.90;;;;;;5035115;28;20574;-68
2021/03/18 09:54:48;;;;;;;1999.90;999.90;;;7.70;99.90;;;;;;5035150;28;20533;-67
2021/03/18 09:57:15;;;;;;;1999.90;999.90;;;7.70;99.90;;;;;;5035329;28;20492;-68
2021/03/18 09:59:41;;;;;;;1999.90;999.90;;;7.80;99.90;;;;;;5035312;28;20403;-69
2021/03/18 10:02:08;;;;;;;1999.90;999.90;;;8.10;99.90;;;;;;5035223;28;20403;-69
2021/03/18 10:04:38;;;;;;;1999.90;999.90;;;8.40;99.90;;;;;;5035125;28;20453;-68
2021/03/18 10:07:04;;;;;;;1999.90;999.90;;;8.60;99.90;;;;;;5034823;28;20495;-69
2021/03/18 10:09:32;;;;;;;1999.90;999.90;;;8.50;99.90;;;;;;5035161;28;20996;-69
2021/03/18 10:12:08;;;;;;;1999.90;999.90;;;8.70;99.90;;;;;;5035007;28;20226;-69
2021/03/18 10:14:44;;;;;;;1999.90;999.90;;;8.70;99.90;;;;;;5031488;28;20533;-67
2021/03/18 10:17:18;;;;;;;1999.90;999.90;;;8.70;99.90;;;;;;5031965;28;21050;-67
2021/03/18 10:19:50;;;;;;;1999.90;999.90;;;8.90;99.90;;;;;;5033223;28;20461;-68
2021/03/18 10:22:17;;;;;;;1999.90;999.90;;;9.00;99.90;;;;;;5032809;28;20405;-68
2021/03/18 10:24:42;;;;;;;1999.90;999.90;;;9.10;99.90;;;;;;5032805;28;20415;-68
2021/03/18 10:27:15;;;;;;;1999.90;999.90;;;9.10;99.90;;;;;;5032754;28;20431;-69
2021/03/18 10:29:43;;;;;;;1999.90;999.90;;;9.10;99.90;;;;;;5032568;28;20655;-67
2021/03/18 10:32:19;;;;;;;1999.90;999.90;;;9.10;99.90;;;;;;5032822;28;20450;-68
2021/03/18 10:34:56;;;;;;;1999.90;999.90;;;9.20;99.90;;;;;;5032426;28;20454;-67
2021/03/18 10:37:31;;;;;;;1999.90;999.90;;;9.40;99.90;;;;;;5032336;28;20444;-67
2021/03/18 10:40:22;;;;;;;1999.90;999.90;;;9.50;99.90;;;;;;5032231;28;20457;-68
2021/03/18 10:42:49;;;;;;;1999.90;999.90;;;9.80;99.90;;;;;;5033041;28;20397;-67
2021/03/18 10:45:22;;;;;;;1999.90;999.90;;;9.50;99.90;;;;;;5030264;28;20425;-67
2021/03/18 10:47:48;;;;;;;1999.90;999.90;;;9.60;99.90;;;;;;5032597;28;20420;-67
2021/03/18 10:50:16;;;;;;;1999.90;999.90;;;9.50;99.90;;;;;;5032940;28;20434;-67
2021/03/18 10:53:09;;;;;;;1999.90;999.90;;;9.40;99.90;;;;;;5032717;28;20908;-68
2021/03/18 10:55:38;;;;;;;1999.90;999.90;;;9.50;99.90;;;;;;5032375;28;20455;-68
2021/03/18 10:58:06;;;;;;;1999.90;999.90;;;9.30;99.90;;;;;;5032185;28;20940;-67
2021/03/18 11:00:35;;;;;;;1999.90;999.90;;;9.30;99.90;;;;;;5032795;28;20401;-67
2021/03/18 11:03:02;;;;;;;1999.90;999.90;;;9.40;99.90;;;;;;5032685;28;20405;-67
2021/03/18 11:05:30;;;;;;;1999.90;999.90;;;9.30;99.90;;;;;;5031998;28;20490;-68
2021/03/18 11:07:58;;;;;;;1999.90;999.90;;;9.30;99.90;;;;;;5032767;28;20435;-68
2021/03/18 11:10:30;;;;;;;1999.90;999.90;;;9.40;99.90;;;;;;5018633;28;20427;-67
2021/03/18 11:13:03;;;;;;;1999.90;999.90;;;9.70;99.90;;;;;;5011879;28;20472;-68
2021/03/18 11:15:52;;;;;;;1999.90;999.90;;;9.80;99.90;;;;;;5011591;28;20503;-68
2021/03/18 11:18:24;;;;;;;1999.90;999.90;;;9.30;99.90;;;;;;5012593;28;20387;-69
2021/03/18 11:20:50;;;;;;;1999.90;999.90;;;9.20;99.90;;;;;;5011801;28;20828;-69
2021/03/18 11:23:24;;;;;;;1999.90;999.90;;;9.10;99.90;;;;;;5012947;28;20410;-68
2021/03/18 11:25:55;;;;;;;1999.90;999.90;;;9.20;99.90;;;;;;5011645;28;20199;-72
2021/03/18 11:28:21;;;;;;;1999.90;999.90;;;9.30;99.90;;;;;;5011895;28;20826;-71
2021/03/18 11:30:47;;;;;;;1999.90;999.90;;;9.30;99.90;;;;;;5012586;28;20432;-69
2021/03/18 11:33:14;;;;;;;1999.90;999.90;;;9.30;99.90;;;;;;5012428;28;20231;-70
2021/03/18 11:35:42;;;;;;;1999.90;999.90;;;9.30;99.90;;;;;;5011166;28;20215;-70
2021/03/18 11:38:08;;;;;;;1999.90;999.90;;;9.30;99.90;;;;;;5012508;28;20404;-68
2021/03/18 11:40:35;;;;;;;1999.90;999.90;;;9.40;99.90;;;;;;5012101;28;20407;-68
2021/03/18 11:43:00;;;;;;;1999.90;999.90;;;9.60;99.90;;;;;;5011677;28;20741;-68
2021/03/18 11:45:26;;;;;;;1999.90;999.90;;;9.90;99.90;;;;;;5011760;28;20419;-71
2021/03/18 11:47:52;;;;;;;1999.90;999.90;;;9.90;99.90;;;;;;5012258;28;20679;-68
2021/03/18 11:50:17;;;;;;;1999.90;999.90;;;9.80;99.90;;;;;;5011714;28;20637;-68
2021/03/18 11:52:43;;;;;;;1999.90;999.90;;;9.70;99.90;;;;;;5012006;28;20176;-69
2021/03/18 11:55:09;;;;;;;1999.90;999.90;;;9.10;99.90;;;;;;5011412;28;20221;-69
2021/03/18 11:57:35;;;;;;;1999.90;999.90;;;8.80;99.90;;;;;;5011343;28;20802;-69
2021/03/18 12:00:01;;;;;;;1999.90;999.90;;;8.80;99.90;;;;;;5011938;28;20408;-70
2021/03/18 12:02:27;;;;;;;1999.90;999.90;;;8.80;99.90;;;;;;5011782;28;20174;-69
2021/03/18 12:04:52;;;;;;;1999.90;999.90;;;8.60;99.90;;;;;;5010778;28;20412;-70
2021/03/18 12:07:18;;;;;;;1999.90;999.90;;;8.20;99.90;;;;;;5011495;28;20289;-69
2021/03/18 12:09:44;;;;;;;1999.90;999.90;;;7.80;99.90;;;;;;5011767;28;20582;-70
2021/03/18 12:12:09;;;;;;;1999.90;999.90;;;7.50;99.90;;;;;;5011246;28;20173;-70
2021/03/18 12:14:35;;;;;;;1999.90;999.90;;;7.30;99.90;;;;;;5011684;28;20208;-69
2021/03/18 12:17:00;;;;;;;1999.90;999.90;;;7.40;99.90;;;;;;5011101;28;20615;-68
2021/03/18 12:19:26;;;;;;;1999.90;999.90;;;7.60;99.90;;;;;;5011148;28;20157;-68
2021/03/18 12:21:52;;;;;;;1999.90;999.90;;;7.50;99.90;;;;;;5011511;28;20179;-69